createdAt,value
2022-09-04T00:02:08.352Z,14.10
2022-09-04T00:04:50.243Z,14.10
2022-09-04T00:07:27.760Z,14.10
2022-09-04T00:10:09.635Z,14.10
2022-09-04T00:12:46.069Z,14.10
2022-09-04T00:15:20.574Z,14.00
2022-09-04T00:17:55.941Z,14.00
2022-09-04T00:20:35.755Z,14.00
2022-09-04T00:23:10.085Z,14.00
2022-09-04T00:25:50.513Z,13.90
2022-09-04T00:28:35.262Z,13.90
2022-09-04T00:31:14.202Z,13.90
2022-09-04T00:33:50.700Z,13.90
2022-09-04T00:36:22.606Z,13.90
2022-09-04T00:38:55.852Z,13.90
2022-09-04T00:41:30.916Z,13.80
2022-09-04T00:44:35.629Z,13.80
2022-09-04T00:47:22.046Z,13.90
2022-09-04T00:50:23.048Z,13.80
2022-09-04T00:53:11.451Z,13.90
2022-09-04T00:55:54.126Z,13.90
2022-09-04T00:58:48.113Z,14.00
2022-09-04T01:01:23.185Z,14.00
2022-09-04T01:04:19.335Z,13.90
2022-09-04T01:06:58.973Z,13.80
2022-09-04T01:09:48.631Z,13.80
2022-09-04T01:12:30.160Z,13.70
2022-09-04T01:15:14.493Z,13.70
2022-09-04T01:17:56.315Z,13.70
2022-09-04T01:20:47.431Z,13.60
2022-09-04T01:23:31.793Z,13.60
2022-09-04T01:26:09.138Z,13.60
2022-09-04T01:28:51.693Z,13.60
2022-09-04T01:31:27.695Z,13.60
2022-09-04T01:34:16.257Z,13.60
2022-09-04T01:36:51.114Z,13.50
2022-09-04T01:39:23.178Z,13.50
2022-09-04T01:41:57.892Z,13.50
2022-09-04T01:44:27.270Z,13.50
2022-09-04T01:47:08.321Z,13.50
2022-09-04T01:49:39.140Z,13.40
2022-09-04T01:52:21.696Z,13.40
2022-09-04T01:54:57.048Z,13.40
2022-09-04T01:57:51.457Z,13.30
2022-09-04T02:00:23.196Z,13.30
2022-09-04T02:03:02.220Z,13.30
2022-09-04T02:05:35.495Z,13.30
2022-09-04T02:08:23.102Z,13.30
2022-09-04T02:10:57.675Z,13.20
2022-09-04T02:13:43.680Z,13.20
2022-09-04T02:16:16.718Z,13.20
2022-09-04T02:18:55.961Z,13.20
2022-09-04T02:21:31.806Z,13.20
2022-09-04T02:24:14.173Z,13.20
2022-09-04T02:26:51.269Z,13.20
2022-09-04T02:29:27.270Z,13.20
2022-09-04T02:32:02.686Z,13.20
2022-09-04T02:34:40.561Z,13.20
2022-09-04T02:37:18.122Z,13.20
2022-09-04T02:39:58.437Z,13.20
2022-09-04T02:42:33.924Z,13.20
2022-09-04T02:45:14.173Z,13.10
2022-09-04T02:47:50.066Z,13.10
2022-09-04T02:50:30.186Z,13.10
2022-09-04T02:53:08.364Z,13.10
2022-09-04T02:55:58.714Z,13.10
2022-09-04T02:58:39.660Z,13.10
2022-09-04T03:01:15.238Z,13.00
2022-09-04T03:03:48.139Z,13.00
2022-09-04T03:06:23.835Z,12.90
2022-09-04T03:08:57.110Z,12.90
2022-09-04T03:11:32.384Z,12.90
2022-09-04T03:14:06.817Z,12.90
2022-09-04T03:16:41.343Z,12.80
2022-09-04T03:19:18.992Z,12.80
2022-09-04T03:21:51.794Z,12.80
2022-09-04T03:24:28.729Z,12.80
2022-09-04T03:27:00.626Z,12.80
2022-09-04T03:29:35.900Z,12.80
2022-09-04T03:32:17.182Z,12.80
2022-09-04T03:34:52.578Z,12.70
2022-09-04T03:37:43.989Z,12.70
2022-09-04T03:40:25.993Z,12.70
2022-09-04T03:43:18.544Z,12.70
2022-09-04T03:45:55.710Z,12.70
2022-09-04T03:48:45.776Z,12.70
2022-09-04T03:51:25.677Z,12.70
2022-09-04T03:54:05.249Z,12.70
2022-09-04T03:56:48.263Z,12.70
2022-09-04T03:59:29.079Z,12.70
2022-09-04T04:02:06.533Z,12.70
2022-09-04T04:05:11.919Z,12.70
2022-09-04T04:07:48.071Z,12.70
2022-09-04T04:10:31.173Z,12.60
2022-09-04T04:13:15.605Z,12.60
2022-09-04T04:15:53.825Z,12.60
2022-09-04T04:18:53.114Z,12.70
2022-09-04T04:21:34.733Z,12.70
2022-09-04T04:24:39.155Z,12.70
2022-09-04T04:27:29.456Z,12.80
2022-09-04T04:30:06.111Z,12.80
2022-09-04T04:33:02.448Z,12.80
2022-09-04T04:35:39.334Z,12.80
2022-09-04T04:38:21.064Z,12.80
2022-09-04T04:41:02.237Z,12.70
2022-09-04T04:43:37.475Z,12.80
2022-09-04T04:46:12.419Z,12.80
2022-09-04T04:49:08.104Z,12.80
2022-09-04T04:51:59.345Z,12.70
2022-09-04T04:54:44.718Z,12.70
2022-09-04T04:57:26.891Z,12.70
2022-09-04T05:00:06.539Z,12.70
2022-09-04T05:02:41.627Z,12.70
2022-09-04T05:05:14.406Z,12.70
2022-09-04T05:07:52.219Z,12.80
2022-09-04T05:10:27.045Z,12.80
2022-09-04T05:13:04.318Z,12.80
2022-09-04T05:15:53.220Z,12.80
2022-09-04T05:18:32.690Z,12.90
2022-09-04T05:21:10.030Z,12.90
2022-09-04T05:23:46.707Z,12.90
2022-09-04T05:26:25.811Z,12.90
2022-09-04T05:29:02.317Z,13.00
2022-09-04T05:31:40.142Z,13.10
2022-09-04T05:34:16.383Z,13.10
2022-09-04T05:36:52.401Z,13.10
2022-09-04T05:39:29.654Z,13.10
2022-09-04T05:42:13.214Z,13.30
2022-09-04T05:44:57.659Z,13.40
2022-09-04T05:47:43.194Z,13.50
2022-09-04T05:50:41.074Z,13.70
2022-09-04T05:53:37.190Z,13.80
2022-09-04T05:56:25.743Z,14.00
2022-09-04T05:59:24.337Z,14.20
2022-09-04T06:02:07.730Z,14.30
2022-09-04T06:05:05.881Z,14.40
2022-09-04T06:07:41.813Z,14.50
2022-09-04T06:10:18.196Z,14.60
2022-09-04T06:13:21.661Z,14.70
2022-09-04T06:16:04.727Z,14.70
2022-09-04T06:18:52.101Z,14.90
2022-09-04T06:21:50.306Z,15.00
2022-09-04T06:24:33.158Z,15.10
2022-09-04T06:27:16.223Z,15.20
2022-09-04T06:29:59.294Z,15.30
2022-09-04T06:32:54.016Z,15.40
2022-09-04T06:35:40.720Z,15.40
2022-09-04T06:38:27.545Z,15.50
2022-09-04T06:41:08.512Z,15.50
2022-09-04T06:43:48.667Z,15.50
2022-09-04T06:46:23.704Z,15.60
2022-09-04T06:49:02.669Z,15.80
2022-09-04T06:51:45.625Z,15.80
2022-09-04T06:54:22.418Z,16.00
2022-09-04T06:57:06.849Z,16.10
2022-09-04T07:00:02.629Z,16.20
2022-09-04T07:02:46.946Z,16.30
2022-09-04T07:05:24.018Z,16.50
2022-09-04T07:08:04.962Z,16.60
2022-09-04T07:10:35.988Z,16.70
2022-09-04T07:13:36.724Z,16.90
2022-09-04T07:16:21.840Z,17.00
2022-09-04T07:19:08.705Z,17.20
2022-09-04T07:21:51.370Z,17.30
2022-09-04T07:24:47.493Z,17.50
2022-09-04T07:27:21.939Z,17.60
2022-09-04T07:29:55.954Z,17.80
2022-09-04T07:32:32.001Z,17.90
2022-09-04T07:35:06.312Z,18.10
2022-09-04T07:37:44.349Z,18.30
2022-09-04T07:40:17.676Z,18.50
2022-09-04T07:42:52.066Z,18.60
2022-09-04T07:45:32.362Z,18.80
2022-09-04T07:48:18.881Z,18.90
2022-09-04T07:51:04.992Z,18.90
2022-09-04T07:53:50.710Z,19.10
2022-09-04T07:56:27.489Z,19.20
2022-09-04T07:59:16.657Z,19.30
2022-09-04T08:02:03.422Z,19.50
2022-09-04T08:05:03.211Z,19.80
2022-09-04T08:08:12.397Z,20.00
2022-09-04T08:10:51.313Z,20.30
2022-09-04T08:13:44.351Z,20.70
2022-09-04T08:16:18.052Z,21.00
2022-09-04T08:19:15.682Z,21.30
2022-09-04T08:21:45.714Z,21.50
2022-09-04T08:24:45.654Z,21.70
2022-09-04T08:27:29.495Z,21.80
2022-09-04T08:30:05.036Z,21.90
2022-09-04T08:32:48.545Z,22.00
2022-09-04T08:35:23.694Z,21.90
2022-09-04T08:38:07.581Z,22.00
2022-09-04T08:40:57.770Z,21.90
2022-09-04T08:43:37.598Z,21.80
2022-09-04T08:46:44.542Z,21.70
2022-09-04T08:49:55.151Z,21.50
2022-09-04T08:52:54.773Z,21.50
2022-09-04T08:55:51.084Z,21.40
2022-09-04T08:58:47.862Z,21.20
2022-09-04T09:01:38.077Z,21.20
2022-09-04T09:04:49.433Z,21.20
2022-09-04T09:07:53.840Z,21.20
2022-09-04T09:10:52.123Z,21.30
2022-09-04T09:14:08.368Z,21.40
2022-09-04T09:16:45.748Z,21.60
2022-09-04T09:19:42.640Z,21.70
2022-09-04T09:22:16.330Z,21.80
2022-09-04T09:25:13.633Z,21.80
2022-09-04T09:28:20.982Z,21.90
2022-09-04T09:31:10.433Z,22.00
2022-09-04T09:34:11.518Z,22.10
2022-09-04T09:37:13.789Z,22.30
2022-09-04T09:40:25.929Z,22.40
2022-09-04T09:43:30.228Z,22.60
2022-09-04T09:46:17.799Z,22.80
2022-09-04T09:49:16.770Z,22.90
2022-09-04T09:52:19.920Z,23.10
2022-09-04T09:55:25.588Z,23.20
2022-09-04T09:58:29.140Z,23.20
2022-09-04T10:01:14.833Z,23.30
2022-09-04T10:04:21.511Z,23.40
2022-09-04T10:07:24.492Z,23.60
2022-09-04T10:10:28.815Z,23.70
2022-09-04T10:13:41.964Z,24.10
2022-09-04T10:16:42.787Z,24.20
2022-09-04T10:19:43.466Z,24.40
2022-09-04T10:22:59.811Z,24.50
2022-09-04T10:25:49.235Z,24.70
2022-09-04T10:28:57.168Z,24.80
2022-09-04T10:31:47.094Z,24.90
2022-09-04T10:34:40.118Z,25.10
2022-09-04T10:37:27.130Z,25.20
2022-09-04T10:40:24.473Z,25.40
2022-09-04T10:43:09.688Z,25.60
2022-09-04T10:45:39.916Z,25.80
2022-09-04T10:48:41.701Z,26.00
2022-09-04T10:51:44.153Z,26.20
2022-09-04T10:54:36.476Z,26.50
2022-09-04T10:57:18.556Z,26.80
2022-09-04T11:00:05.717Z,26.90
2022-09-04T11:03:07.920Z,26.90
2022-09-04T11:06:12.841Z,27.10
2022-09-04T11:09:06.650Z,27.30
2022-09-04T11:11:59.099Z,27.60
2022-09-04T11:14:53.086Z,27.80
2022-09-04T11:17:48.346Z,27.80
2022-09-04T11:20:50.335Z,27.80
2022-09-04T11:23:55.965Z,27.80
2022-09-04T11:27:08.293Z,27.90
2022-09-04T11:30:02.363Z,28.20
2022-09-04T11:32:52.285Z,28.50
2022-09-04T11:35:59.447Z,28.80
2022-09-04T11:38:54.832Z,29.10
2022-09-04T11:41:43.973Z,29.30
2022-09-04T11:44:35.852Z,29.40
2022-09-04T11:47:26.020Z,29.20
2022-09-04T11:50:05.843Z,28.80
2022-09-04T11:53:08.108Z,28.50
2022-09-04T11:56:12.730Z,28.30
2022-09-04T11:59:28.818Z,28.00
2022-09-04T12:02:41.629Z,27.70
2022-09-04T12:05:39.529Z,27.60
2022-09-04T12:08:28.022Z,27.30
2022-09-04T12:11:14.139Z,27.10
2022-09-04T12:14:09.461Z,27.00
2022-09-04T12:17:08.472Z,27.00
2022-09-04T12:20:26.744Z,27.10
2022-09-04T12:23:18.356Z,27.30
2022-09-04T12:26:08.500Z,27.50
2022-09-04T12:29:07.822Z,27.60
2022-09-04T12:31:52.941Z,27.80
2022-09-04T12:35:02.080Z,28.00
2022-09-04T12:38:09.943Z,28.30
2022-09-04T12:40:46.562Z,28.60
2022-09-04T12:43:31.995Z,28.80
2022-09-04T12:46:14.327Z,29.00
2022-09-04T12:48:54.609Z,29.00
2022-09-04T12:51:26.574Z,29.20
2022-09-04T12:54:19.088Z,29.00
2022-09-04T12:56:53.184Z,29.20
2022-09-04T12:59:50.014Z,29.40
2022-09-04T13:02:27.808Z,29.70
2022-09-04T13:05:03.865Z,29.90
2022-09-04T13:07:44.999Z,29.90
2022-09-04T13:10:24.135Z,29.80
2022-09-04T13:13:01.524Z,29.60
2022-09-04T13:15:36.517Z,29.40
2022-09-04T13:18:21.709Z,29.30
2022-09-04T13:21:01.193Z,29.20
2022-09-04T13:23:46.920Z,29.00
2022-09-04T13:26:29.607Z,28.80
2022-09-04T13:29:08.434Z,28.80
2022-09-04T13:32:04.403Z,28.60
2022-09-04T13:34:45.994Z,28.30
2022-09-04T13:37:23.816Z,28.00
2022-09-04T13:40:26.441Z,28.00
2022-09-04T13:43:22.449Z,27.80
2022-09-04T13:45:54.834Z,27.60
2022-09-04T13:48:37.336Z,27.50
2022-09-04T13:51:13.540Z,27.20
2022-09-04T13:53:54.690Z,27.10
2022-09-04T13:56:32.237Z,27.10
2022-09-04T13:59:08.527Z,27.10
2022-09-04T14:01:46.100Z,27.10
2022-09-04T14:04:19.388Z,27.10
2022-09-04T14:06:49.228Z,27.10
2022-09-04T14:09:18.318Z,27.20
2022-09-04T14:12:18.517Z,27.20
2022-09-04T14:15:21.311Z,27.40
2022-09-04T14:18:01.483Z,27.60
2022-09-04T14:20:36.553Z,27.60
2022-09-04T14:23:14.401Z,27.70
2022-09-04T14:25:51.236Z,27.90
2022-09-04T14:28:29.418Z,28.10
2022-09-04T14:31:10.367Z,28.20
2022-09-04T14:33:49.720Z,28.10
2022-09-04T14:36:29.763Z,28.10
2022-09-04T14:39:18.884Z,28.10
2022-09-04T14:42:12.181Z,28.00
2022-09-04T14:45:01.649Z,28.00
2022-09-04T14:47:42.214Z,27.90
2022-09-04T14:50:13.425Z,27.80
2022-09-04T14:52:45.646Z,27.80
2022-09-04T14:55:19.141Z,27.70
2022-09-04T14:57:51.293Z,27.80
2022-09-04T15:00:22.236Z,27.80
2022-09-04T15:02:58.068Z,27.70
2022-09-04T15:05:31.861Z,27.80
2022-09-04T15:08:02.452Z,27.90
2022-09-04T15:10:49.878Z,27.90
2022-09-04T15:13:59.947Z,27.90
2022-09-04T15:16:46.658Z,27.80
2022-09-04T15:19:28.525Z,27.70
2022-09-04T15:22:03.195Z,27.60
2022-09-04T15:24:37.921Z,27.70
2022-09-04T15:27:16.296Z,27.70
2022-09-04T15:30:00.241Z,27.80
2022-09-04T15:32:33.545Z,27.90
2022-09-04T15:35:12.495Z,28.00
2022-09-04T15:37:42.291Z,27.90
2022-09-04T15:40:14.028Z,27.80
2022-09-04T15:42:46.195Z,27.80
2022-09-04T15:45:23.929Z,27.70
2022-09-04T15:48:34.125Z,27.70
2022-09-04T15:51:19.928Z,27.60
2022-09-04T15:53:55.128Z,27.50
2022-09-04T15:56:34.821Z,27.40
2022-09-04T15:59:12.155Z,27.30
2022-09-04T16:01:49.685Z,27.10
2022-09-04T16:04:26.424Z,26.80
2022-09-04T16:06:59.969Z,26.70
2022-09-04T16:09:34.073Z,26.50
2022-09-04T16:12:10.622Z,26.50
2022-09-04T16:14:45.100Z,26.40
2022-09-04T16:17:20.146Z,26.40
2022-09-04T16:19:56.561Z,26.40
2022-09-04T16:22:36.343Z,26.40
2022-09-04T16:25:11.817Z,26.40
2022-09-04T16:27:48.233Z,26.40
2022-09-04T16:30:31.229Z,26.30
2022-09-04T16:33:00.310Z,26.30
2022-09-04T16:35:31.955Z,26.20
2022-09-04T16:38:09.269Z,26.20
2022-09-04T16:40:46.627Z,26.10
2022-09-04T16:43:24.093Z,26.10
2022-09-04T16:46:01.679Z,26.00
2022-09-04T16:48:43.250Z,26.00
2022-09-04T16:51:39.820Z,25.90
2022-09-04T16:54:18.083Z,25.70
2022-09-04T16:56:50.817Z,25.60
2022-09-04T16:59:26.322Z,25.50
2022-09-04T17:02:00.941Z,25.50
2022-09-04T17:04:39.761Z,25.40
2022-09-04T17:07:19.405Z,25.30
2022-09-04T17:10:02.746Z,25.20
2022-09-04T17:12:47.190Z,25.10
2022-09-04T17:15:27.929Z,24.90
2022-09-04T17:17:57.145Z,24.80
2022-09-04T17:20:51.613Z,24.70
2022-09-04T17:28:59.674Z,24.50
2022-09-04T17:29:07.543Z,24.30
2022-09-04T17:29:36.068Z,24.20
2022-09-04T17:32:51.509Z,24.00
2022-09-04T17:40:34.001Z,23.90
2022-09-04T17:40:36.993Z,23.70
2022-09-04T17:41:37.915Z,23.60
2022-09-04T17:44:05.388Z,23.70
2022-09-04T17:46:36.734Z,23.80
2022-09-04T17:49:20.077Z,23.80
2022-09-04T17:51:57.629Z,23.60
2022-09-04T17:54:30.177Z,23.40
2022-09-04T17:57:02.302Z,23.20
2022-09-04T17:59:40.512Z,23.00
2022-09-04T18:02:17.766Z,22.80
2022-09-04T18:04:53.758Z,22.60
2022-09-04T18:08:07.409Z,22.40
2022-09-04T18:10:25.204Z,22.30
2022-09-04T18:13:04.662Z,22.10
2022-09-04T18:15:39.411Z,21.90
2022-09-04T18:18:13.729Z,21.80
2022-09-04T18:20:50.937Z,21.60
2022-09-04T18:23:48.225Z,21.50
2022-09-04T18:26:33.979Z,21.30
2022-09-04T18:30:33.999Z,21.10
2022-09-04T18:37:06.204Z,21.00
2022-09-04T18:37:22.867Z,20.90
2022-09-04T18:38:15.596Z,20.70
2022-09-04T18:43:16.807Z,20.60
2022-09-04T18:50:30.768Z,20.60
2022-09-04T18:50:31.683Z,20.50
2022-09-04T18:50:39.644Z,20.50
2022-09-04T18:52:19.084Z,20.40
2022-09-04T18:54:50.782Z,20.30
2022-09-04T18:57:28.124Z,20.30
2022-09-04T19:00:08.145Z,20.30
2022-09-04T19:02:52.918Z,20.30
2022-09-04T19:05:44.336Z,20.20
2022-09-04T19:08:18.526Z,20.20
2022-09-04T19:10:55.087Z,20.10
2022-09-04T19:13:28.227Z,20.00
2022-09-04T19:16:02.750Z,19.90
2022-09-04T19:18:43.782Z,19.80
2022-09-04T19:21:21.977Z,19.60
2022-09-04T19:23:58.672Z,19.50
2022-09-04T19:26:36.483Z,19.40
2022-09-04T19:29:12.553Z,19.30
2022-09-04T19:31:44.542Z,19.10
2022-09-04T19:34:19.077Z,19.10
2022-09-04T19:36:55.625Z,19.00
2022-09-04T19:45:53.567Z,19.00
2022-09-04T19:46:12.321Z,18.90
2022-09-04T19:46:12.953Z,18.90
2022-09-04T19:48:24.364Z,18.80
2022-09-04T19:53:19.443Z,18.80
2022-09-04T19:53:57.903Z,18.80
2022-09-04T19:56:32.575Z,18.70
2022-09-04T19:59:25.994Z,18.60
2022-09-04T20:01:59.554Z,18.60
2022-09-04T20:04:37.234Z,18.60
2022-09-04T20:07:14.109Z,18.60
2022-09-04T20:09:48.963Z,18.50
2022-09-04T20:12:21.777Z,18.50
2022-09-04T20:14:56.098Z,18.50
2022-09-04T20:17:42.057Z,18.40
2022-09-04T20:20:19.084Z,18.30
2022-09-04T20:22:53.282Z,18.30
2022-09-04T20:25:42.713Z,18.30
2022-09-04T20:28:29.150Z,18.30
2022-09-04T20:31:35.415Z,18.20
2022-09-04T20:34:13.140Z,18.20
2022-09-04T20:36:49.122Z,18.10
2022-09-04T20:39:23.471Z,18.10
2022-09-04T20:42:01.467Z,18.00
2022-09-04T20:44:47.645Z,18.00
2022-09-04T20:52:42.368Z,18.00
2022-09-04T20:52:53.854Z,17.90
2022-09-04T20:53:28.354Z,17.90
2022-09-04T20:56:08.077Z,17.90
2022-09-04T21:03:09.465Z,17.80
2022-09-04T21:03:17.388Z,17.70
2022-09-04T21:05:00.780Z,17.60
2022-09-04T21:07:35.986Z,17.50
2022-09-04T21:10:11.739Z,17.50
2022-09-04T21:12:46.103Z,17.40
2022-09-04T21:15:31.719Z,17.40
2022-09-04T21:18:20.988Z,17.30
2022-09-04T21:21:07.728Z,17.30
2022-09-04T21:24:18.813Z,17.30
2022-09-04T21:27:13.172Z,17.20
2022-09-04T21:29:59.363Z,17.20
2022-09-04T21:33:03.697Z,17.10
2022-09-04T21:35:53.297Z,17.10
2022-09-04T21:38:57.020Z,17.00
2022-09-04T21:41:52.793Z,17.00
2022-09-04T21:44:56.877Z,16.90
2022-09-04T21:47:48.459Z,16.90
2022-09-04T21:50:42.552Z,16.80
2022-09-04T21:53:43.401Z,16.80
2022-09-04T22:02:12.394Z,16.80
2022-09-04T22:02:45.895Z,16.80
2022-09-04T22:02:54.331Z,16.80
2022-09-04T22:05:35.046Z,16.70
2022-09-04T22:13:27.024Z,16.70
2022-09-04T22:13:41.542Z,16.60
2022-09-04T22:14:26.553Z,16.70
2022-09-04T22:17:24.467Z,16.60
2022-09-04T22:20:14.933Z,16.60
2022-09-04T22:23:12.626Z,16.60
2022-09-04T22:25:48.804Z,16.50
2022-09-04T22:28:56.792Z,16.50
2022-09-04T22:31:55.355Z,16.50
2022-09-04T22:34:50.013Z,16.40
2022-09-04T22:37:53.420Z,16.40
2022-09-04T22:40:56.229Z,16.40
2022-09-04T22:43:27.230Z,16.40
2022-09-04T22:46:30.905Z,16.30
2022-09-04T22:49:36.340Z,16.30
2022-09-04T22:52:37.246Z,16.30
2022-09-04T22:55:39.088Z,16.30
2022-09-04T22:58:44.650Z,16.20
2022-09-04T23:01:52.712Z,16.20
2022-09-04T23:04:48.494Z,16.20
2022-09-04T23:12:13.561Z,16.20
2022-09-04T23:13:53.251Z,16.10
2022-09-04T23:14:06.439Z,16.10
2022-09-04T23:16:52.983Z,16.10
2022-09-04T23:25:56.828Z,16.10
2022-09-04T23:26:42.857Z,16.00
2022-09-04T23:26:49.221Z,16.00
2022-09-04T23:29:41.027Z,15.90
2022-09-04T23:32:36.091Z,15.80
2022-09-04T23:35:15.739Z,15.80
2022-09-04T23:38:07.081Z,15.70
2022-09-04T23:40:43.972Z,15.60
2022-09-04T23:43:43.301Z,15.60
2022-09-04T23:46:33.439Z,15.50
2022-09-04T23:49:32.366Z,15.50
2022-09-04T23:52:09.249Z,15.50
2022-09-04T23:54:56.789Z,15.50
2022-09-04T23:57:29.831Z,15.50
